createdAt,value
2022-08-26T00:00:25.170Z,72428.75
2022-08-26T00:00:57.542Z,72430.75
2022-08-26T00:01:32.733Z,72428.75
2022-08-26T00:02:07.569Z,72430.75
2022-08-26T00:02:40.602Z,72428.75
2022-08-26T00:03:19.721Z,72426.75
2022-08-26T00:03:52.114Z,72426.75
2022-08-26T00:04:26.006Z,72426.75
2022-08-26T00:05:01.397Z,72432.75
2022-08-26T00:05:34.242Z,72424.75
2022-08-26T00:06:07.363Z,72428.75
2022-08-26T00:06:46.177Z,72426.75
2022-08-26T00:07:18.988Z,72432.75
2022-08-26T00:07:51.522Z,72426.75
2022-08-26T00:08:26.558Z,72428.75
2022-08-26T00:08:59.395Z,72426.75
2022-08-26T00:09:37.289Z,72426.75
2022-08-26T00:10:12.536Z,72428.75
2022-08-26T00:10:45.022Z,72426.75
2022-08-26T00:11:26.984Z,72426.75
2022-08-26T00:11:59.627Z,72422.75
2022-08-26T00:12:36.157Z,72422.75
2022-08-26T00:13:10.737Z,72422.75
2022-08-26T00:13:47.853Z,72430.75
2022-08-26T00:14:24.179Z,72422.75
2022-08-26T00:15:00.926Z,72422.75
2022-08-26T00:15:35.961Z,72424.75
2022-08-26T00:16:09.255Z,72418.78
2022-08-26T00:16:48.199Z,72422.75
2022-08-26T00:17:24.222Z,72420.78
2022-08-26T00:17:59.154Z,72424.75
2022-08-26T00:18:40.724Z,72418.78
2022-08-26T00:19:13.192Z,72422.75
2022-08-26T00:19:45.581Z,72426.75
2022-08-26T00:20:26.395Z,72418.78
2022-08-26T00:20:59.278Z,72422.75
2022-08-26T00:21:38.645Z,72422.75
2022-08-26T00:22:14.109Z,72422.75
2022-08-26T00:22:54.351Z,72426.75
2022-08-26T00:23:27.110Z,72420.78
2022-08-26T00:24:03.902Z,72422.75
2022-08-26T00:24:36.239Z,72424.75
2022-08-26T00:25:10.202Z,72426.75
2022-08-26T00:25:45.166Z,72426.75
2022-08-26T00:26:17.742Z,72426.75
2022-08-26T00:26:50.713Z,72426.75
2022-08-26T00:27:26.999Z,72430.75
2022-08-26T00:28:01.248Z,72422.75
2022-08-26T00:28:34.302Z,72422.75
2022-08-26T00:29:09.415Z,72424.75
2022-08-26T00:29:41.887Z,72422.75
2022-08-26T00:30:17.023Z,72424.75
2022-08-26T00:30:57.766Z,72424.75
2022-08-26T00:31:31.190Z,72424.75
2022-08-26T00:32:04.353Z,72426.75
2022-08-26T00:32:39.482Z,72422.75
2022-08-26T00:33:11.989Z,72422.75
2022-08-26T00:33:47.009Z,72424.75
2022-08-26T00:34:21.945Z,72430.75
2022-08-26T00:34:54.584Z,72426.75
2022-08-26T00:35:28.281Z,72430.75
2022-08-26T00:36:03.305Z,72426.75
2022-08-26T00:36:36.779Z,72426.75
2022-08-26T00:37:11.632Z,72432.75
2022-08-26T00:37:49.690Z,72428.75
2022-08-26T00:38:22.856Z,72430.75
2022-08-26T00:38:55.331Z,72430.75
2022-08-26T00:39:30.295Z,72430.75
2022-08-26T00:40:05.390Z,72434.75
2022-08-26T00:40:41.206Z,72434.75
2022-08-26T00:41:17.094Z,72430.75
2022-08-26T00:41:50.594Z,72430.75
2022-08-26T00:42:22.932Z,72430.75
2022-08-26T00:42:58.110Z,72434.75
2022-08-26T00:43:33.395Z,72428.75
2022-08-26T00:44:20.181Z,72430.75
2022-08-26T00:44:55.147Z,72428.75
2022-08-26T00:45:27.725Z,72430.75
2022-08-26T00:46:04.582Z,72428.75
2022-08-26T00:46:46.469Z,72426.75
2022-08-26T00:47:24.145Z,72430.75
2022-08-26T00:47:59.228Z,72426.75
2022-08-26T00:48:36.162Z,72426.75
2022-08-26T00:49:16.487Z,72430.75
2022-08-26T00:49:49.455Z,72430.75
2022-08-26T00:50:28.798Z,72428.75
2022-08-26T00:51:05.327Z,72434.75
2022-08-26T00:51:43.075Z,72430.75
2022-08-26T00:52:20.114Z,72428.75
2022-08-26T00:52:54.218Z,72426.75
2022-08-26T00:53:29.645Z,72426.75
2022-08-26T00:54:07.413Z,72430.75
2022-08-26T00:54:47.098Z,72426.75
2022-08-26T00:55:24.002Z,72426.75
2022-08-26T00:56:04.563Z,72426.75
2022-08-26T00:56:43.846Z,72426.75
2022-08-26T00:57:20.241Z,72430.75
2022-08-26T00:57:55.351Z,72426.75
2022-08-26T00:58:29.358Z,72426.75
2022-08-26T00:59:04.288Z,72430.75
2022-08-26T00:59:39.629Z,72428.75
2022-08-26T01:00:16.904Z,72434.75
2022-08-26T01:00:51.997Z,72428.75
2022-08-26T01:01:26.281Z,72430.75
2022-08-26T01:01:58.700Z,72424.75
2022-08-26T01:02:33.753Z,72432.75
2022-08-26T01:03:07.572Z,72430.75
2022-08-26T01:03:46.012Z,72426.75
2022-08-26T01:04:26.253Z,72428.75
2022-08-26T01:05:00.986Z,72428.75
2022-08-26T01:05:35.830Z,72428.75
2022-08-26T01:06:13.145Z,72426.75
2022-08-26T01:06:45.778Z,72430.75
2022-08-26T01:07:18.095Z,72422.75
2022-08-26T01:07:54.527Z,72426.75
2022-08-26T01:08:27.268Z,72426.75
2022-08-26T01:09:00.191Z,72426.75
2022-08-26T01:09:35.527Z,72422.75
2022-08-26T01:10:12.010Z,72426.75
2022-08-26T01:10:44.401Z,72424.75
2022-08-26T01:11:19.616Z,72424.75
2022-08-26T01:11:54.385Z,72424.75
2022-08-26T01:12:28.655Z,72422.75
2022-08-26T01:13:06.536Z,72426.75
2022-08-26T01:13:39.806Z,72422.75
2022-08-26T01:14:15.106Z,72422.75
2022-08-26T01:14:47.818Z,72424.75
2022-08-26T01:15:25.625Z,72422.75
2022-08-26T01:16:04.281Z,72422.75
2022-08-26T01:16:37.148Z,72418.78
2022-08-26T01:17:10.044Z,72422.75
2022-08-26T01:17:45.038Z,72420.78
2022-08-26T01:18:17.753Z,72418.78
2022-08-26T01:18:50.277Z,72426.75
2022-08-26T01:19:31.127Z,72420.78
2022-08-26T01:20:08.757Z,72422.75
2022-08-26T01:20:46.845Z,72418.78
2022-08-26T01:21:28.210Z,72418.78
2022-08-26T01:22:06.997Z,72418.78
2022-08-26T01:22:49.633Z,72422.75
2022-08-26T01:23:29.669Z,72422.75
2022-08-26T01:24:02.212Z,72422.75
2022-08-26T01:24:34.968Z,72422.75
2022-08-26T01:25:11.439Z,72420.78
2022-08-26T01:25:46.833Z,72424.75
2022-08-26T01:26:24.440Z,72422.75
2022-08-26T01:26:59.645Z,72422.75
2022-08-26T01:27:33.545Z,72422.75
2022-08-26T01:28:12.281Z,72422.75
2022-08-26T01:28:45.147Z,72422.75
2022-08-26T01:29:23.338Z,72426.75
2022-08-26T01:29:58.255Z,72420.78
2022-08-26T01:30:32.610Z,72418.78
2022-08-26T01:31:09.037Z,72426.75
2022-08-26T01:31:49.157Z,72422.75
2022-08-26T01:32:23.252Z,72422.75
2022-08-26T01:32:56.833Z,72418.78
2022-08-26T01:33:42.422Z,72422.75
2022-08-26T01:34:18.332Z,72418.78
2022-08-26T01:34:52.860Z,72418.78
2022-08-26T01:35:28.476Z,72422.75
2022-08-26T01:36:01.542Z,72418.78
2022-08-26T01:36:33.917Z,72422.75
2022-08-26T01:37:15.467Z,72422.75
2022-08-26T01:37:54.509Z,72422.75
2022-08-26T01:38:27.916Z,72422.75
2022-08-26T01:39:07.340Z,72418.78
2022-08-26T01:39:40.170Z,72418.78
2022-08-26T01:40:18.836Z,72416.78
2022-08-26T01:40:53.899Z,72418.78
2022-08-26T01:41:29.120Z,72418.78
2022-08-26T01:42:03.167Z,72420.78
2022-08-26T01:42:38.401Z,72422.75
2022-08-26T01:43:14.882Z,72422.75
2022-08-26T01:43:49.622Z,72418.78
2022-08-26T01:44:26.456Z,72418.78
2022-08-26T01:45:01.948Z,72418.78
2022-08-26T01:45:35.439Z,72422.75
2022-08-26T01:46:11.666Z,72418.78
2022-08-26T01:46:44.168Z,72418.78
2022-08-26T01:47:20.409Z,72418.78
2022-08-26T01:47:57.424Z,72424.75
2022-08-26T01:48:32.114Z,72426.75
2022-08-26T01:49:07.690Z,72424.75
2022-08-26T01:49:43.445Z,72420.78
2022-08-26T01:50:27.802Z,72422.75
2022-08-26T01:51:06.773Z,72422.75
2022-08-26T01:51:39.837Z,72418.78
2022-08-26T01:52:13.395Z,72422.75
2022-08-26T01:52:49.951Z,72422.75
2022-08-26T01:53:29.318Z,72422.75
2022-08-26T01:54:04.694Z,72422.75
2022-08-26T01:54:37.301Z,72422.75
2022-08-26T01:55:12.187Z,72418.78
2022-08-26T01:55:49.981Z,72422.75
2022-08-26T01:56:23.648Z,72422.75
2022-08-26T01:56:56.175Z,72416.78
2022-08-26T01:57:32.011Z,72422.75
2022-08-26T01:58:10.761Z,72426.75
2022-08-26T01:58:50.941Z,72426.75
2022-08-26T01:59:24.755Z,72422.75
2022-08-26T01:59:59.539Z,72422.75
2022-08-26T02:00:34.581Z,72426.75
2022-08-26T02:01:07.134Z,72418.78
2022-08-26T02:01:44.775Z,72422.75
2022-08-26T02:02:17.273Z,72420.78
2022-08-26T02:03:12.566Z,72418.78
2022-08-26T02:03:54.567Z,72422.75
2022-08-26T02:04:29.721Z,72414.78
2022-08-26T02:05:04.854Z,72418.78
2022-08-26T02:05:37.358Z,72418.78
2022-08-26T02:06:12.289Z,72418.78
2022-08-26T02:06:45.506Z,72418.78
2022-08-26T02:07:19.873Z,72414.78
2022-08-26T02:07:56.510Z,72418.78
2022-08-26T02:08:36.058Z,72416.78
2022-08-26T02:09:11.685Z,72418.78
2022-08-26T02:09:44.362Z,72418.78
2022-08-26T02:10:16.848Z,72414.78
2022-08-26T02:10:55.156Z,72418.78
2022-08-26T02:11:27.617Z,72414.78
2022-08-26T02:12:00.292Z,72416.78
2022-08-26T02:12:37.200Z,72418.78
2022-08-26T02:13:11.278Z,72422.75
2022-08-26T02:13:52.642Z,72422.75
2022-08-26T02:14:30.321Z,72416.78
2022-08-26T02:15:06.173Z,72420.78
2022-08-26T02:15:44.269Z,72418.78
2022-08-26T02:16:19.034Z,72418.78
2022-08-26T02:16:53.330Z,72420.78
2022-08-26T02:17:32.737Z,72424.75
2022-08-26T02:18:05.869Z,72418.78
2022-08-26T02:18:42.581Z,72426.75
2022-08-26T02:19:17.570Z,72420.78
2022-08-26T02:19:53.476Z,72418.78
2022-08-26T02:20:26.591Z,72422.75
2022-08-26T02:20:59.207Z,72422.75
2022-08-26T02:21:34.710Z,72418.78
2022-08-26T02:22:11.791Z,72418.78
2022-08-26T02:22:45.229Z,72424.75
2022-08-26T02:23:20.292Z,72422.75
2022-08-26T02:24:09.245Z,72420.78
2022-08-26T02:24:52.864Z,72422.75
2022-08-26T02:25:27.709Z,72420.78
2022-08-26T02:26:04.565Z,72422.75
2022-08-26T02:26:39.622Z,72418.78
2022-08-26T02:27:12.057Z,72414.78
2022-08-26T02:27:46.713Z,72422.75
2022-08-26T02:28:21.741Z,72414.78
2022-08-26T02:29:04.061Z,72418.78
2022-08-26T02:29:38.431Z,72420.78
2022-08-26T02:30:17.205Z,72418.78
2022-08-26T02:30:49.696Z,72418.78
2022-08-26T02:31:25.986Z,72420.78
2022-08-26T02:31:58.622Z,72422.75
2022-08-26T02:32:31.118Z,72426.75
2022-08-26T02:33:04.040Z,72422.75
2022-08-26T02:33:42.891Z,72422.75
2022-08-26T02:34:17.938Z,72424.75
2022-08-26T02:34:50.375Z,72422.75
2022-08-26T02:35:26.449Z,72420.78
2022-08-26T02:35:58.857Z,72426.75
2022-08-26T02:36:31.161Z,72424.75
2022-08-26T02:37:09.146Z,72422.75
2022-08-26T02:37:42.013Z,72418.78
2022-08-26T02:38:14.466Z,72422.75
2022-08-26T02:38:49.626Z,72422.75
2022-08-26T02:39:27.023Z,72426.75
2022-08-26T02:39:59.505Z,72422.75
2022-08-26T02:40:41.060Z,72422.75
2022-08-26T02:41:14.195Z,72422.75
2022-08-26T02:41:47.034Z,72420.78
2022-08-26T02:42:22.897Z,72418.78
2022-08-26T02:42:56.041Z,72418.78
2022-08-26T02:43:31.268Z,72416.78
2022-08-26T02:44:07.358Z,72422.75
2022-08-26T02:44:39.926Z,72418.78
2022-08-26T02:45:13.121Z,72418.78
2022-08-26T02:45:51.870Z,72422.75
2022-08-26T02:46:29.856Z,72420.78
2022-08-26T02:47:02.595Z,72418.78
2022-08-26T02:47:37.751Z,72422.75
2022-08-26T02:48:14.385Z,72416.78
2022-08-26T02:48:49.307Z,72422.75
2022-08-26T02:49:22.424Z,72420.78
2022-08-26T02:49:54.766Z,72422.75
2022-08-26T02:50:30.178Z,72414.78
2022-08-26T02:51:02.652Z,72422.75
2022-08-26T02:51:35.037Z,72418.78
2022-08-26T02:52:10.529Z,72418.78
2022-08-26T02:52:43.070Z,72422.75
2022-08-26T02:53:16.653Z,72418.78
2022-08-26T02:53:59.787Z,72418.78
2022-08-26T02:54:36.446Z,72422.75
2022-08-26T02:55:09.034Z,72422.75
2022-08-26T02:55:44.388Z,72418.78
2022-08-26T02:56:16.714Z,72418.78
2022-08-26T02:56:49.522Z,72418.78
2022-08-26T02:57:24.667Z,72414.78
2022-08-26T02:57:57.091Z,72412.78
2022-08-26T02:58:32.007Z,72412.78
2022-08-26T02:59:04.423Z,72416.78
2022-08-26T02:59:39.408Z,72410.78
2022-08-26T03:00:14.773Z,72414.78
2022-08-26T03:00:53.028Z,72410.78
2022-08-26T03:01:27.845Z,72414.78
2022-08-26T03:02:00.590Z,72416.78
2022-08-26T03:02:35.597Z,72414.78
2022-08-26T03:03:08.338Z,72410.78
2022-08-26T03:03:41.440Z,72410.78
2022-08-26T03:04:16.517Z,72410.78
2022-08-26T03:04:58.110Z,72414.78
2022-08-26T03:05:35.499Z,72414.78
2022-08-26T03:06:12.454Z,72412.78
2022-08-26T03:06:52.692Z,72416.78
2022-08-26T03:07:27.116Z,72414.78
2022-08-26T03:08:05.917Z,72418.78
2022-08-26T03:08:41.705Z,72414.78
2022-08-26T03:09:18.852Z,72414.78
2022-08-26T03:09:58.707Z,72412.78
2022-08-26T03:10:33.298Z,72414.78
2022-08-26T03:11:06.143Z,72410.78
2022-08-26T03:11:43.369Z,72414.78
2022-08-26T03:12:16.158Z,72414.78
2022-08-26T03:12:52.257Z,72410.78
2022-08-26T03:13:27.381Z,72410.78
2022-08-26T03:14:00.702Z,72412.78
2022-08-26T03:14:42.018Z,72408.78
2022-08-26T03:15:17.869Z,72408.78
2022-08-26T03:15:50.925Z,72414.78
2022-08-26T03:16:32.651Z,72408.78
2022-08-26T03:17:08.027Z,72408.78
2022-08-26T03:17:42.566Z,72410.78
2022-08-26T03:18:18.697Z,72410.78
2022-08-26T03:18:55.105Z,72408.78
2022-08-26T03:19:32.237Z,72410.78
2022-08-26T03:20:11.585Z,72406.81
2022-08-26T03:20:46.626Z,72410.78
2022-08-26T03:21:19.400Z,72410.78
2022-08-26T03:21:57.841Z,72402.81
2022-08-26T03:22:30.570Z,72406.81
2022-08-26T03:23:05.729Z,72402.81
2022-08-26T03:23:40.680Z,72410.78
2022-08-26T03:24:13.606Z,72404.81
2022-08-26T03:24:48.606Z,72402.81
2022-08-26T03:25:27.387Z,72402.81
2022-08-26T03:25:59.748Z,72400.81
2022-08-26T03:26:34.946Z,72402.81
2022-08-26T03:27:09.119Z,72406.81
2022-08-26T03:27:41.509Z,72402.81
2022-08-26T03:28:20.502Z,72406.81
2022-08-26T03:29:10.381Z,72406.81
2022-08-26T03:29:57.734Z,72402.81
2022-08-26T03:30:45.475Z,72402.81
2022-08-26T03:31:21.048Z,72406.81
2022-08-26T03:31:57.258Z,72404.81
2022-08-26T03:32:33.043Z,72408.78
2022-08-26T03:33:05.794Z,72406.81
2022-08-26T03:33:40.910Z,72406.81
2022-08-26T03:34:13.305Z,72410.78
2022-08-26T03:34:49.863Z,72408.78
2022-08-26T03:35:29.569Z,72410.78
2022-08-26T03:36:04.126Z,72408.78
2022-08-26T03:36:39.354Z,72410.78
2022-08-26T03:37:14.239Z,72412.78
2022-08-26T03:37:47.502Z,72414.78
2022-08-26T03:38:26.256Z,72410.78
2022-08-26T03:38:59.085Z,72410.78
2022-08-26T03:39:32.650Z,72414.78
2022-08-26T03:40:11.738Z,72412.78
2022-08-26T03:40:47.297Z,72410.78
2022-08-26T03:41:21.428Z,72410.78
2022-08-26T03:41:57.662Z,72412.78
2022-08-26T03:42:29.947Z,72414.78
2022-08-26T03:43:03.364Z,72414.78
2022-08-26T03:43:40.825Z,72414.78
2022-08-26T03:44:13.285Z,72410.78
2022-08-26T03:44:48.877Z,72414.78
2022-08-26T03:45:28.914Z,72414.78
2022-08-26T03:46:05.107Z,72410.78
2022-08-26T03:46:38.764Z,72416.78
2022-08-26T03:47:16.559Z,72412.78
2022-08-26T03:47:48.920Z,72414.78
2022-08-26T03:48:21.610Z,72410.78
2022-08-26T03:48:56.617Z,72410.78
2022-08-26T03:49:29.100Z,72410.78
2022-08-26T03:50:03.321Z,72410.78
2022-08-26T03:50:43.438Z,72410.78
2022-08-26T03:51:21.383Z,72406.81
2022-08-26T03:51:53.786Z,72404.81
2022-08-26T03:52:33.633Z,72404.81
2022-08-26T03:53:07.500Z,72406.81
2022-08-26T03:53:48.371Z,72406.81
2022-08-26T03:54:20.722Z,72406.81
2022-08-26T03:54:55.337Z,72404.81
2022-08-26T03:55:34.792Z,72404.81
2022-08-26T03:56:10.240Z,72402.81
2022-08-26T03:56:42.762Z,72402.81
2022-08-26T03:57:21.430Z,72404.81
2022-08-26T03:57:55.146Z,72406.81
2022-08-26T03:58:27.922Z,72408.78
2022-08-26T03:59:07.632Z,72404.81
2022-08-26T03:59:41.298Z,72406.81
2022-08-26T04:00:18.228Z,72408.78
2022-08-26T04:00:55.447Z,72406.81
2022-08-26T04:01:28.547Z,72410.78
2022-08-26T04:02:01.539Z,72414.78
2022-08-26T04:02:37.272Z,72406.81
2022-08-26T04:03:14.638Z,72410.78
2022-08-26T04:04:00.097Z,72410.78
2022-08-26T04:04:35.663Z,72414.78
2022-08-26T04:05:08.822Z,72410.78
2022-08-26T04:05:41.129Z,72406.81
2022-08-26T04:06:16.342Z,72410.78
2022-08-26T04:06:49.410Z,72410.78
2022-08-26T04:07:26.126Z,72404.81
2022-08-26T04:07:58.497Z,72414.78
2022-08-26T04:08:31.362Z,72408.78
2022-08-26T04:09:08.242Z,72412.78
2022-08-26T04:09:40.766Z,72414.78
2022-08-26T04:10:28.455Z,72410.78
2022-08-26T04:11:04.462Z,72412.78
2022-08-26T04:11:40.233Z,72412.78
2022-08-26T04:12:15.267Z,72410.78
2022-08-26T04:12:47.807Z,72416.78
2022-08-26T04:13:20.146Z,72410.78
2022-08-26T04:13:55.171Z,72414.78
2022-08-26T04:14:28.314Z,72410.78
2022-08-26T04:15:00.606Z,72418.78
2022-08-26T04:15:39.401Z,72416.78
2022-08-26T04:16:12.958Z,72414.78
2022-08-26T04:16:48.791Z,72414.78
2022-08-26T04:17:25.837Z,72418.78
2022-08-26T04:17:58.413Z,72416.78
2022-08-26T04:18:37.216Z,72418.78
2022-08-26T04:19:10.621Z,72410.78
2022-08-26T04:19:47.063Z,72414.78
2022-08-26T04:20:19.691Z,72416.78
2022-08-26T04:20:52.247Z,72416.78
2022-08-26T04:21:27.516Z,72418.78
2022-08-26T04:22:00.541Z,72418.78
2022-08-26T04:22:34.049Z,72422.75
2022-08-26T04:23:12.019Z,72414.78
2022-08-26T04:23:48.086Z,72414.78
2022-08-26T04:24:27.070Z,72414.78
2022-08-26T04:25:00.997Z,72422.75
2022-08-26T04:25:33.449Z,72422.75
2022-08-26T04:26:08.793Z,72418.78
2022-08-26T04:26:49.254Z,72414.78
2022-08-26T04:27:24.198Z,72418.78
2022-08-26T04:27:57.758Z,72418.78
2022-08-26T04:28:31.904Z,72418.78
2022-08-26T04:29:13.989Z,72418.78
2022-08-26T04:29:47.753Z,72420.78
2022-08-26T04:30:21.273Z,72422.75
2022-08-26T04:30:56.414Z,72416.78
2022-08-26T04:31:28.905Z,72418.78
2022-08-26T04:32:07.016Z,72422.75
2022-08-26T04:32:43.142Z,72414.78
2022-08-26T04:33:15.834Z,72418.78
2022-08-26T04:33:52.795Z,72418.78
2022-08-26T04:34:28.713Z,72414.78
2022-08-26T04:35:01.917Z,72422.75
2022-08-26T04:35:37.232Z,72422.75
2022-08-26T04:36:13.411Z,72416.78
2022-08-26T04:36:45.767Z,72420.78
2022-08-26T04:37:20.695Z,72416.78
2022-08-26T04:37:55.525Z,72414.78
2022-08-26T04:38:28.093Z,72418.78
2022-08-26T04:39:04.910Z,72422.75
2022-08-26T04:39:37.349Z,72422.75
2022-08-26T04:40:10.478Z,72418.78
2022-08-26T04:40:46.994Z,72426.75
2022-08-26T04:41:19.910Z,72422.75
2022-08-26T04:41:58.040Z,72418.78
2022-08-26T04:42:32.217Z,72420.78
2022-08-26T04:43:05.948Z,72418.78
2022-08-26T04:43:42.265Z,72420.78
2022-08-26T04:44:15.083Z,72418.78
2022-08-26T04:44:50.082Z,72414.78
2022-08-26T04:45:23.036Z,72418.78
2022-08-26T04:45:55.503Z,72420.78
2022-08-26T04:46:31.700Z,72418.78
2022-08-26T04:47:04.852Z,72418.78
2022-08-26T04:47:37.183Z,72418.78
2022-08-26T04:48:13.017Z,72418.78
2022-08-26T04:48:51.810Z,72418.78
2022-08-26T04:49:27.658Z,72418.78
2022-08-26T04:50:00.149Z,72426.75
2022-08-26T04:50:34.413Z,72420.78
2022-08-26T04:51:06.979Z,72420.78
2022-08-26T04:51:42.387Z,72418.78
2022-08-26T04:52:16.333Z,72418.78
2022-08-26T04:52:48.629Z,72422.75
2022-08-26T04:53:23.537Z,72422.75
2022-08-26T04:53:57.926Z,72422.75
2022-08-26T04:54:30.523Z,72422.75
2022-08-26T04:55:08.431Z,72424.75
2022-08-26T04:55:42.852Z,72422.75
2022-08-26T04:56:18.114Z,72426.75
2022-08-26T04:56:53.124Z,72422.75
2022-08-26T04:57:28.093Z,72422.75
2022-08-26T04:58:00.466Z,72426.75
2022-08-26T04:58:35.712Z,72418.78
2022-08-26T04:59:17.078Z,72426.75
2022-08-26T04:59:50.350Z,72426.75
2022-08-26T05:00:25.631Z,72420.78
2022-08-26T05:00:58.715Z,72426.75
2022-08-26T05:01:31.700Z,72418.78
2022-08-26T05:02:07.316Z,72422.75
2022-08-26T05:02:41.010Z,72422.75
2022-08-26T05:03:15.262Z,72418.78
2022-08-26T05:03:50.934Z,72424.75
2022-08-26T05:04:23.734Z,72422.75
2022-08-26T05:04:56.066Z,72418.78
2022-08-26T05:05:28.417Z,72418.78
2022-08-26T05:06:07.349Z,72426.75
2022-08-26T05:06:41.835Z,72418.78
2022-08-26T05:07:17.671Z,72422.75
2022-08-26T05:07:50.056Z,72410.78
2022-08-26T05:08:23.430Z,72402.81
2022-08-26T05:08:58.381Z,72396.81
2022-08-26T05:09:30.882Z,72388.84
2022-08-26T05:10:03.877Z,72382.84
2022-08-26T05:10:44.658Z,72374.88
2022-08-26T05:11:17.365Z,72374.88
2022-08-26T05:11:52.049Z,72374.88
2022-08-26T05:12:27.922Z,72370.88
2022-08-26T05:13:03.817Z,72362.88
2022-08-26T05:13:43.326Z,72362.88
2022-08-26T05:14:18.891Z,72366.88
2022-08-26T05:14:51.238Z,72362.88
2022-08-26T05:15:24.206Z,72370.88
2022-08-26T05:16:01.178Z,72366.88
2022-08-26T05:16:33.726Z,72370.88
2022-08-26T05:17:06.165Z,72366.88
2022-08-26T05:17:41.737Z,72370.88
2022-08-26T05:18:15.213Z,72368.88
2022-08-26T05:18:48.599Z,72370.88
2022-08-26T05:19:23.791Z,72370.88
2022-08-26T05:19:56.211Z,72370.88
2022-08-26T05:20:28.942Z,72374.88
2022-08-26T05:21:05.245Z,72374.88
2022-08-26T05:21:38.868Z,72374.88
2022-08-26T05:22:13.903Z,72370.88
2022-08-26T05:22:47.282Z,72374.88
2022-08-26T05:23:22.960Z,72370.88
2022-08-26T05:23:58.600Z,72378.84
2022-08-26T05:24:31.187Z,72370.88
2022-08-26T05:25:03.801Z,72378.84
2022-08-26T05:25:41.582Z,72374.88
2022-08-26T05:26:14.467Z,72378.84
2022-08-26T05:26:51.618Z,72372.88
2022-08-26T05:27:23.970Z,72376.88
2022-08-26T05:27:56.311Z,72372.88
2022-08-26T05:28:33.841Z,72368.88
2022-08-26T05:29:07.729Z,72370.88
2022-08-26T05:29:40.251Z,72372.88
2022-08-26T05:30:15.886Z,72370.88
2022-08-26T05:30:48.808Z,72368.88
2022-08-26T05:31:23.951Z,72368.88
2022-08-26T05:31:58.981Z,72370.88
2022-08-26T05:32:32.022Z,72372.88
2022-08-26T05:33:05.213Z,72370.88
2022-08-26T05:33:41.345Z,72370.88
2022-08-26T05:34:13.810Z,72370.88
2022-08-26T05:34:46.527Z,72370.88
2022-08-26T05:35:21.690Z,72372.88
2022-08-26T05:35:54.802Z,72370.88
2022-08-26T05:36:32.391Z,72368.88
2022-08-26T05:37:06.269Z,72372.88
2022-08-26T05:37:38.579Z,72370.88
2022-08-26T05:38:16.030Z,72370.88
2022-08-26T05:38:48.854Z,72372.88
2022-08-26T05:39:24.738Z,72378.84
2022-08-26T05:39:57.139Z,72376.88
2022-08-26T05:40:34.628Z,72374.88
2022-08-26T05:41:17.257Z,72378.84
2022-08-26T05:41:49.871Z,72378.84
2022-08-26T05:42:22.160Z,72372.88
2022-08-26T05:42:57.489Z,72370.88
2022-08-26T05:43:33.494Z,72370.88
2022-08-26T05:44:10.305Z,72374.88
2022-08-26T05:44:55.796Z,72374.88
2022-08-26T05:45:28.785Z,72374.88
2022-08-26T05:46:09.551Z,72378.84
2022-08-26T05:46:42.556Z,72382.84
2022-08-26T05:47:19.053Z,72382.84
2022-08-26T05:47:51.838Z,72382.84
2022-08-26T05:48:26.887Z,72390.84
2022-08-26T05:48:59.886Z,72386.84
2022-08-26T05:49:35.070Z,72378.84
2022-08-26T05:50:16.222Z,72382.84
2022-08-26T05:50:50.143Z,72388.84
2022-08-26T05:51:26.106Z,72378.84
2022-08-26T05:51:58.638Z,72378.84
2022-08-26T05:52:30.949Z,72380.84
2022-08-26T05:53:05.937Z,72386.84
2022-08-26T05:53:40.781Z,72378.84
2022-08-26T05:54:21.894Z,72380.84
2022-08-26T05:54:55.229Z,72386.84
2022-08-26T05:55:27.718Z,72386.84
2022-08-26T05:56:02.673Z,72382.84
2022-08-26T05:56:34.950Z,72382.84
2022-08-26T05:57:12.236Z,72382.84
2022-08-26T05:57:44.786Z,72376.88
2022-08-26T05:58:20.324Z,72378.84
2022-08-26T05:58:59.786Z,72378.84
2022-08-26T05:59:32.473Z,72378.84
2022-08-26T06:00:06.188Z,72382.84
2022-08-26T06:00:48.996Z,72382.84
2022-08-26T06:01:25.729Z,72382.84
2022-08-26T06:02:00.735Z,72378.84
2022-08-26T06:02:33.117Z,72382.84
2022-08-26T06:03:05.768Z,72380.84
2022-08-26T06:03:42.622Z,72382.84
2022-08-26T06:04:14.965Z,72382.84
2022-08-26T06:04:47.525Z,72378.84
2022-08-26T06:05:23.685Z,72380.84
2022-08-26T06:05:56.180Z,72378.84
2022-08-26T06:06:30.408Z,72382.84
2022-08-26T06:07:05.461Z,72378.84
2022-08-26T06:07:54.704Z,72376.88
2022-08-26T06:08:27.600Z,72378.84
2022-08-26T06:09:04.673Z,72382.84
2022-08-26T06:09:37.197Z,72382.84
2022-08-26T06:10:31.491Z,72382.84
2022-08-26T06:11:17.160Z,72386.84
2022-08-26T06:11:51.377Z,72384.84
2022-08-26T06:12:26.410Z,72386.84
2022-08-26T06:13:04.569Z,72390.84
2022-08-26T06:13:46.430Z,72394.81
2022-08-26T06:14:21.375Z,72392.81
2022-08-26T06:14:55.143Z,72396.81
2022-08-26T06:15:30.540Z,72394.81
2022-08-26T06:16:05.579Z,72390.84
2022-08-26T06:16:43.930Z,72390.84
2022-08-26T06:17:16.773Z,72396.81
2022-08-26T06:17:50.122Z,72394.81
2022-08-26T06:18:28.874Z,72394.81
2022-08-26T06:19:03.475Z,72394.81
2022-08-26T06:19:45.889Z,72390.84
2022-08-26T06:20:18.508Z,72390.84
2022-08-26T06:20:57.285Z,72390.84
2022-08-26T06:21:34.961Z,72390.84
2022-08-26T06:22:27.452Z,72392.81
2022-08-26T06:23:14.729Z,72390.84
2022-08-26T06:24:03.865Z,72390.84
2022-08-26T06:24:51.133Z,72396.81
2022-08-26T06:25:38.843Z,72394.81
2022-08-26T06:26:14.502Z,72398.81
2022-08-26T06:26:50.521Z,72398.81
2022-08-26T06:27:30.599Z,72398.81
2022-08-26T06:28:05.481Z,72398.81
2022-08-26T06:28:37.851Z,72390.84
2022-08-26T06:29:12.822Z,72396.81
2022-08-26T06:29:58.550Z,72394.81
2022-08-26T06:30:30.895Z,72394.81
2022-08-26T06:31:06.560Z,72394.81
2022-08-26T06:31:39.985Z,72396.81
2022-08-26T06:32:15.086Z,72394.81
2022-08-26T06:32:47.430Z,72394.81
2022-08-26T06:33:22.232Z,72394.81
2022-08-26T06:33:58.401Z,72396.81
2022-08-26T06:34:31.104Z,72396.81
2022-08-26T06:35:03.729Z,72396.81
2022-08-26T06:35:42.849Z,72398.81
2022-08-26T06:36:19.501Z,72398.81
2022-08-26T06:36:54.594Z,72398.81
2022-08-26T06:37:27.159Z,72394.81
2022-08-26T06:37:59.881Z,72398.81
2022-08-26T06:38:34.778Z,72398.81
2022-08-26T06:39:11.550Z,72396.81
2022-08-26T06:39:44.069Z,72400.81
2022-08-26T06:40:19.149Z,72398.81
2022-08-26T06:40:54.887Z,72398.81
2022-08-26T06:41:32.015Z,72398.81
2022-08-26T06:42:06.332Z,72398.81
2022-08-26T06:42:42.426Z,72400.81
2022-08-26T06:43:17.369Z,72398.81
2022-08-26T06:43:53.886Z,72394.81
2022-08-26T06:44:26.940Z,72394.81
2022-08-26T06:45:01.901Z,72394.81
2022-08-26T06:45:38.537Z,72392.81
2022-08-26T06:46:12.981Z,72396.81
2022-08-26T06:46:50.217Z,72398.81
2022-08-26T06:47:23.101Z,72400.81
2022-08-26T06:47:57.223Z,72400.81
2022-08-26T06:48:32.210Z,72396.81
2022-08-26T06:49:04.986Z,72398.81
2022-08-26T06:49:37.438Z,72404.81
2022-08-26T06:50:12.763Z,72404.81
2022-08-26T06:50:45.482Z,72394.81
2022-08-26T06:51:23.693Z,72398.81
2022-08-26T06:51:58.583Z,72402.81
2022-08-26T06:52:33.852Z,72398.81
2022-08-26T06:53:08.250Z,72402.81
2022-08-26T06:53:45.712Z,72398.81
2022-08-26T06:54:18.390Z,72400.81
2022-08-26T06:54:50.729Z,72402.81
2022-08-26T06:55:27.068Z,72402.81
2022-08-26T06:55:59.524Z,72402.81
2022-08-26T06:56:37.487Z,72404.81
2022-08-26T06:57:09.883Z,72402.81
2022-08-26T06:57:42.303Z,72402.81